Aérodrome :
LOGIN :

S'inscrire | Disclaimer

   EN    FR    IT 

 










Légende :    VFR   VFR Marginal   IFR   IFR Intensif   IFR Très Intensif
Visi : 
Plafond : 
>= 8 km
>= 3000ft
5 à 8 km
1000 à 3000 ft
1500m à 5 km
500 à 1000 ft
800 à 1500m
200 à 500 ft
< 800m
< 200 ft
Symboles :   Orages  Brouillard  Fortes neiges  Fortes précipitations  Vent > 20 kt
SIGMETs :   Divers  Orages  Givrage  Turbulence  Onde Orograph.  Cendres Volcan.






- Altitude de l'aérodrome : 265 ft


ETSH - Holzdorf AB

DERNIER METAR :
  • 221820Z 36002KT 9999 MIFG SCT380 10/10 Q1023 BLU+

METARs EXPIRÉS :
  • 221720Z 13001KT 9999 MIFG FEW110 BKN350 11/10 Q1023 BLU+
  • 221700Z 00000KT 9999 MIFG FEW110 BKN340 12/11 Q1023 BLU+FCST CANCEL
  • 221620Z 35001KT 9999 FEW110 BKN320 13/11 Q1023 BLU+BLU+

TAF AMD TAF ETSH
Valide du 22 à 14h jusqu'au 22 à 23h UTC


221700Z 2214/2223 27005KT 9999 NSW SCT100 SCT300 CANCEL 1700 BY ETGL



MET'MAP, la Météo Aéronautique d'un coup d'oeil ! - Copyright ORBIFLY Décembre 2007 - Disclaimer

ORBIFLY MET'MAP TEAM :

Programmation & Développement : Alexandra Zaïnal
Conception & Développement : Baudouin d'Aumeries
Co-Programmation & Développement : Marc-Olivier Méhu
Soutien technique & logistique : Manuel Goepfert

Contact : metmap@orbifly.com




SOURCES & CREDITS :

   NOAA